Time;durP1;ratioP1;P1;durP2;ratioP2;P2;SDS_P1;SDS_P2;PMS_P1;PMS_P2;Temp;Humidity;BMP_temperature;BMP_pressure;BME280_temperature;BME280_humidity;BME280_pressure;Samples;Min_cycle;Max_cycle;Signal;HPM_P1;HPM_P2
2021/03/30 00:01:22;;;;;;;42.75;24.92;;;18.30;59.80;;;;;;5095634;28;20080;-61
2021/03/30 00:03:47;;;;;;;42.80;25.05;;;18.20;60.50;;;;;;5095684;28;20062;-61
2021/03/30 00:06:13;;;;;;;37.15;22.65;;;18.20;60.90;;;;;;5095612;28;20032;-62
2021/03/30 00:08:39;;;;;;;37.88;22.50;;;18.20;60.60;;;;;;5095556;28;20038;-62
2021/03/30 00:11:06;;;;;;;36.47;23.48;;;18.20;60.20;;;;;;5095529;28;20073;-62
2021/03/30 00:13:32;;;;;;;38.38;24.73;;;18.20;61.20;;;;;;5095328;28;20111;-61
2021/03/30 00:15:58;;;;;;;38.72;23.95;;;18.20;61.10;;;;;;5094986;28;20486;-61
2021/03/30 00:18:24;;;;;;;35.65;23.00;;;18.20;60.90;;;;;;5095379;28;20106;-61
2021/03/30 00:20:50;;;;;;;29.88;21.35;;;18.20;59.20;;;;;;5095391;28;20107;-61
2021/03/30 00:23:15;;;;;;;32.47;21.48;;;18.20;58.90;;;;;;5095174;28;20023;-62
2021/03/30 00:25:41;;;;;;;35.25;20.73;;;18.30;58.70;;;;;;5095182;28;20077;-61
2021/03/30 00:28:07;;;;;;;39.95;23.48;;;18.30;58.40;;;;;;5095187;28;20078;-62
2021/03/30 00:30:32;;;;;;;36.10;21.58;;;18.30;58.50;;;;;;5095852;28;20480;-61
2021/03/30 00:32:58;;;;;;;33.00;21.02;;;18.40;58.70;;;;;;5094394;28;20464;-61
2021/03/30 00:35:24;;;;;;;31.98;20.27;;;18.30;59.20;;;;;;5096010;28;20035;-61
2021/03/30 00:37:50;;;;;;;31.77;21.33;;;18.20;59.50;;;;;;5095825;28;20574;-62
2021/03/30 00:40:16;;;;;;;30.67;19.90;;;18.20;59.60;;;;;;5095159;28;20472;-60
2021/03/30 00:42:42;;;;;;;31.77;20.77;;;18.20;59.50;;;;;;5095386;28;20158;-59
2021/03/30 00:45:10;;;;;;;30.63;21.02;;;18.20;59.60;;;;;;5095326;28;20060;-60
2021/03/30 00:47:39;;;;;;;31.50;20.20;;;18.20;59.60;;;;;;5095212;28;20040;-59
2021/03/30 00:50:07;;;;;;;35.92;21.40;;;18.20;59.90;;;;;;5095260;28;20028;-59
2021/03/30 00:52:33;;;;;;;29.98;19.20;;;18.20;60.20;;;;;;5095567;28;20020;-59
2021/03/30 00:54:59;;;;;;;28.02;20.02;;;18.20;60.30;;;;;;5095420;28;20035;-60
2021/03/30 00:57:24;;;;;;;31.10;20.30;;;18.20;60.50;;;;;;5095477;28;20024;-59
2021/03/30 00:59:52;;;;;;;29.67;19.48;;;18.20;60.80;;;;;;5095296;28;20035;-59
2021/03/30 01:02:18;;;;;;;29.95;20.80;;;18.10;61.10;;;;;;5095009;28;20027;-60
2021/03/30 01:04:43;;;;;;;29.80;19.08;;;18.10;61.80;;;;;;5095310;28;20024;-61
2021/03/30 01:07:09;;;;;;;28.80;19.42;;;18.10;61.50;;;;;;5095174;28;20035;-61
2021/03/30 01:09:58;;;;;;;30.77;19.52;;;18.10;61.30;;;;;;5094972;28;20481;-61
2021/03/30 01:12:55;;;;;;;31.38;17.80;;;18.00;61.60;;;;;;5095157;28;20020;-59
2021/03/30 01:15:35;;;;;;;30.27;18.98;;;18.10;60.70;;;;;;5095134;28;20024;-61
2021/03/30 01:18:29;;;;;;;28.92;17.38;;;18.10;59.50;;;;;;5094859;28;20028;-62
2021/03/30 01:21:27;;;;;;;24.92;17.08;;;18.10;59.20;;;;;;5094878;28;20035;-59
2021/03/30 01:24:01;;;;;;;30.70;18.73;;;18.20;59.10;;;;;;5094800;28;20031;-59
2021/03/30 01:26:42;;;;;;;27.33;17.75;;;18.20;59.00;;;;;;5094708;28;20052;-61
2021/03/30 01:29:39;;;;;;;28.98;17.67;;;18.20;59.30;;;;;;5093981;28;20070;-59
2021/03/30 01:32:27;;;;;;;29.92;18.88;;;18.20;60.00;;;;;;5094489;28;20032;-60
2021/03/30 01:34:56;;;;;;;26.75;17.58;;;18.10;60.20;;;;;;5093129;28;20035;-59
2021/03/30 01:37:23;;;;;;;26.65;17.13;;;18.10;60.10;;;;;;5094350;28;20016;-59
2021/03/30 01:39:53;;;;;;;25.95;16.20;;;18.10;60.00;;;;;;5094404;28;20043;-59
2021/03/30 01:42:22;;;;;;;24.30;17.35;;;18.10;59.80;;;;;;5093251;28;20450;-59
2021/03/30 01:44:49;;;;;;;25.98;16.40;;;18.10;60.10;;;;;;5094475;28;20024;-59
2021/03/30 01:47:14;;;;;;;27.05;16.70;;;18.10;60.00;;;;;;5094666;28;20028;-60
2021/03/30 01:49:40;;;;;;;26.63;17.48;;;18.10;60.20;;;;;;5093884;28;20103;-59
2021/03/30 01:52:10;;;;;;;24.67;17.05;;;18.00;60.10;;;;;;5094220;28;20074;-60
2021/03/30 01:54:38;;;;;;;26.53;15.33;;;18.00;60.60;;;;;;5094086;28;20031;-59
2021/03/30 01:57:06;;;;;;;26.23;16.08;;;18.00;60.80;;;;;;5094125;28;20028;-61
2021/03/30 01:59:33;;;;;;;24.23;15.90;;;18.00;61.30;;;;;;5094442;28;20372;-59
2021/03/30 02:02:01;;;;;;;23.65;15.40;;;18.00;61.30;;;;;;5094001;28;20028;-59
2021/03/30 02:04:28;;;;;;;24.58;15.50;;;18.00;61.90;;;;;;5094147;28;20024;-59
2021/03/30 02:06:54;;;;;;;26.77;17.25;;;18.00;61.40;;;;;;5094166;28;20020;-59
2021/03/30 02:09:26;;;;;;;23.25;16.15;;;18.00;61.50;;;;;;5093811;28;20036;-59
2021/03/30 02:11:59;;;;;;;25.90;16.48;;;18.00;59.90;;;;;;5093847;28;20032;-59
2021/03/30 02:14:25;;;;;;;23.83;14.98;;;18.00;59.70;;;;;;5094646;28;20028;-59
2021/03/30 02:17:15;;;;;;;26.15;16.55;;;18.10;59.60;;;;;;5093965;28;20028;-59
2021/03/30 02:19:53;;;;;;;22.63;13.90;;;18.10;59.50;;;;;;5093743;28;20040;-59
2021/03/30 02:22:33;;;;;;;20.70;14.18;;;18.10;59.30;;;;;;5093574;28;20044;-59
2021/03/30 02:25:01;;;;;;;21.88;14.75;;;18.20;59.50;;;;;;5093872;28;20028;-61
2021/03/30 02:27:29;;;;;;;22.33;14.50;;;18.10;60.30;;;;;;5093549;28;20076;-59
2021/03/30 02:29:57;;;;;;;26.13;14.82;;;18.00;60.50;;;;;;5093751;28;20036;-59
2021/03/30 02:32:26;;;;;;;25.25;15.20;;;18.00;60.60;;;;;;5093611;28;20564;-59
2021/03/30 02:34:54;;;;;;;20.17;13.20;;;17.90;60.50;;;;;;5093670;28;20047;-59
2021/03/30 02:37:20;;;;;;;23.80;15.48;;;18.00;60.50;;;;;;5093397;28;20081;-59
2021/03/30 02:39:47;;;;;;;24.60;14.43;;;18.00;60.30;;;;;;5093360;28;20028;-59
2021/03/30 02:42:15;;;;;;;23.33;14.15;;;17.90;61.10;;;;;;5093366;28;20399;-59
2021/03/30 02:44:41;;;;;;;22.58;13.48;;;17.90;60.50;;;;;;5093088;28;20028;-59
2021/03/30 02:47:09;;;;;;;21.90;15.65;;;18.00;60.60;;;;;;5093813;28;20109;-59
2021/03/30 02:49:35;;;;;;;20.83;13.70;;;17.90;60.80;;;;;;5093326;28;20055;-59
2021/03/30 02:52:03;;;;;;;20.15;14.07;;;17.90;60.90;;;;;;5093666;28;20067;-59
2021/03/30 02:54:29;;;;;;;24.33;14.50;;;17.90;61.60;;;;;;5093291;28;20472;-59
2021/03/30 02:56:58;;;;;;;20.55;12.73;;;17.90;61.70;;;;;;5093433;28;20020;-59
2021/03/30 02:59:25;;;;;;;22.38;14.35;;;17.90;62.00;;;;;;5093250;28;20027;-59
2021/03/30 03:01:51;;;;;;;18.65;12.82;;;17.90;62.30;;;;;;5093366;28;20472;-59
2021/03/30 03:04:18;;;;;;;20.77;13.30;;;17.80;62.00;;;;;;5093480;28;20170;-59
2021/03/30 03:06:44;;;;;;;22.58;14.68;;;17.80;62.40;;;;;;5093510;28;20028;-59
2021/03/30 03:09:12;;;;;;;18.10;12.40;;;17.80;60.20;;;;;;5093375;28;20157;-59
2021/03/30 03:11:40;;;;;;;20.00;12.93;;;17.90;60.20;;;;;;5093175;28;20514;-59
2021/03/30 03:14:08;;;;;;;20.45;13.07;;;18.00;59.90;;;;;;5093363;28;20024;-59
2021/03/30 03:16:35;;;;;;;20.58;12.75;;;18.00;59.90;;;;;;5093422;28;20467;-59
2021/03/30 03:19:01;;;;;;;21.23;14.07;;;18.00;59.80;;;;;;5092747;28;20424;-59
2021/03/30 03:21:28;;;;;;;23.55;13.00;;;18.10;59.70;;;;;;5093186;28;20024;-59
2021/03/30 03:23:55;;;;;;;20.02;13.27;;;18.00;59.90;;;;;;5093193;28;20132;-59
2021/03/30 03:26:21;;;;;;;18.27;11.68;;;18.00;60.80;;;;;;5092928;28;20031;-61
2021/03/30 03:28:46;;;;;;;19.15;12.85;;;17.90;60.90;;;;;;5093088;28;20032;-62
2021/03/30 03:31:14;;;;;;;20.80;12.75;;;17.90;61.10;;;;;;5093078;28;20043;-62
2021/03/30 03:33:40;;;;;;;23.38;13.30;;;17.90;60.90;;;;;;5093106;28;20387;-61
2021/03/30 03:36:09;;;;;;;19.63;12.82;;;17.90;61.00;;;;;;5093010;28;20376;-60
2021/03/30 03:38:41;;;;;;;17.73;11.60;;;17.90;60.90;;;;;;5092902;28;20028;-62
2021/03/30 03:41:09;;;;;;;18.08;12.18;;;17.80;61.10;;;;;;5093015;28;20021;-62
2021/03/30 03:43:35;;;;;;;18.77;11.27;;;17.80;60.90;;;;;;5092690;28;20024;-61
2021/03/30 03:46:01;;;;;;;18.95;12.30;;;17.80;61.30;;;;;;5093186;28;20078;-59
2021/03/30 03:48:27;;;;;;;17.05;11.25;;;17.80;61.50;;;;;;5092574;28;20479;-59
2021/03/30 03:50:57;;;;;;;18.75;12.88;;;17.80;61.40;;;;;;5092922;28;20020;-60
2021/03/30 03:53:24;;;;;;;20.07;12.00;;;17.80;62.50;;;;;;5096411;28;20024;-61
2021/03/30 03:55:53;;;;;;;15.77;11.85;;;17.80;62.30;;;;;;5096422;28;20263;-61
2021/03/30 03:58:24;;;;;;;15.02;10.50;;;17.80;62.50;;;;;;5096230;28;20380;-61
2021/03/30 04:00:51;;;;;;;16.85;11.10;;;17.80;62.60;;;;;;5096521;28;20111;-61
2021/03/30 04:03:26;;;;;;;17.92;11.98;;;17.80;61.40;;;;;;5096055;28;20377;-61
2021/03/30 04:06:22;;;;;;;16.17;10.50;;;17.80;61.60;;;;;;5096171;28;20051;-61
2021/03/30 04:08:56;;;;;;;16.25;10.77;;;17.90;60.20;;;;;;5096093;28;20504;-60
2021/03/30 04:11:23;;;;;;;17.35;10.98;;;17.90;59.80;;;;;;5096755;28;20024;-60
2021/03/30 04:13:50;;;;;;;13.40;9.30;;;18.10;59.60;;;;;;5096058;28;20051;-61
2021/03/30 04:16:16;;;;;;;16.08;11.02;;;18.20;59.30;;;;;;5096070;28;20031;-61
2021/03/30 04:18:43;;;;;;;18.45;10.55;;;18.30;59.20;;;;;;5096198;28;20498;-61
2021/03/30 04:21:21;;;;;;;15.82;9.98;;;18.60;58.70;;;;;;5095794;28;20475;-61
2021/03/30 04:23:47;;;;;;;17.92;10.43;;;18.70;58.50;;;;;;5095977;28;20046;-60
2021/03/30 04:26:13;;;;;;;14.38;9.35;;;18.80;58.40;;;;;;5095946;28;20024;-61
2021/03/30 04:28:42;;;;;;;17.15;10.00;;;18.80;58.30;;;;;;5095439;28;20073;-61
2021/03/30 04:31:08;;;;;;;15.18;9.50;;;18.90;58.10;;;;;;5095519;28;20479;-61
2021/03/30 04:33:34;;;;;;;12.98;8.85;;;19.10;57.80;;;;;;5095719;28;20107;-61
2021/03/30 04:35:59;;;;;;;15.80;10.45;;;19.20;57.60;;;;;;5095317;28;20020;-61
2021/03/30 04:38:25;;;;;;;15.23;9.57;;;19.30;57.30;;;;;;5095559;28;20039;-61
2021/03/30 04:40:54;;;;;;;15.27;9.13;;;19.30;57.20;;;;;;5095761;28;20032;-61
2021/03/30 04:43:23;;;;;;;17.15;10.25;;;19.40;57.20;;;;;;5095744;28;20028;-61
2021/03/30 04:45:49;;;;;;;14.55;9.02;;;19.40;57.10;;;;;;5095478;28;20106;-61
2021/03/30 04:48:15;;;;;;;13.80;9.15;;;19.40;57.20;;;;;;5095230;28;20032;-61
2021/03/30 04:50:42;;;;;;;16.77;10.32;;;19.40;57.30;;;;;;5095334;28;20031;-61
2021/03/30 04:53:08;;;;;;;11.13;8.00;;;19.40;57.30;;;;;;5095172;28;20085;-61
2021/03/30 04:55:33;;;;;;;15.23;9.60;;;19.40;57.50;;;;;;5095278;28;20476;-61
2021/03/30 04:57:59;;;;;;;12.80;8.50;;;19.40;57.50;;;;;;5095224;28;20032;-60
2021/03/30 05:00:25;;;;;;;20.13;10.25;;;19.30;57.60;;;;;;5095089;28;20115;-60
2021/03/30 05:02:50;;;;;;;16.30;9.38;;;19.30;57.50;;;;;;5094871;28;20028;-60
2021/03/30 05:05:17;;;;;;;14.30;8.43;;;19.30;57.60;;;;;;5095735;28;20474;-60
2021/03/30 05:07:42;;;;;;;12.48;8.63;;;19.50;57.30;;;;;;5094717;28;20039;-60
2021/03/30 05:10:09;;;;;;;13.77;8.95;;;19.60;56.90;;;;;;5095102;28;20028;-60
2021/03/30 05:12:34;;;;;;;14.55;8.52;;;19.70;56.80;;;;;;5094954;28;20034;-60
2021/03/30 05:15:00;;;;;;;12.90;9.23;;;19.60;56.80;;;;;;5094418;28;20395;-60
2021/03/30 05:17:26;;;;;;;12.00;8.38;;;19.60;56.80;;;;;;5095058;28;20028;-60
2021/03/30 05:19:52;;;;;;;14.93;8.82;;;19.50;57.20;;;;;;5094699;28;20107;-60
2021/03/30 05:22:18;;;;;;;15.10;9.48;;;19.50;57.40;;;;;;5094678;28;20103;-60
2021/03/30 05:24:43;;;;;;;12.80;8.98;;;19.40;57.50;;;;;;5094343;28;20405;-60
2021/03/30 05:27:09;;;;;;;13.93;8.27;;;19.30;57.70;;;;;;5094169;28;20071;-60
2021/03/30 05:29:43;;;;;;;13.73;8.50;;;19.30;57.70;;;;;;5094282;28;20058;-61
2021/03/30 05:32:14;;;;;;;14.00;8.57;;;19.30;57.80;;;;;;5094010;28;20120;-61
2021/03/30 05:34:40;;;;;;;13.25;8.35;;;19.30;58.00;;;;;;5094607;28;20028;-61
2021/03/30 05:37:06;;;;;;;12.20;8.52;;;19.30;58.10;;;;;;5094265;28;20111;-62
2021/03/30 05:39:32;;;;;;;12.40;8.40;;;19.20;58.00;;;;;;5094477;28;20115;-61
2021/03/30 05:41:58;;;;;;;12.55;8.40;;;19.20;58.10;;;;;;5093834;28;20457;-61
2021/03/30 05:44:25;;;;;;;11.68;7.95;;;19.20;58.10;;;;;;5094116;28;20035;-61
2021/03/30 05:49:29;;;;;;;11.55;7.72;;;19.20;58.30;;;;;;5093755;28;20036;-61
2021/03/30 05:51:57;;;;;;;13.18;8.32;;;19.10;58.30;;;;;;5093865;28;20031;-61
2021/03/30 05:54:24;;;;;;;11.50;7.50;;;19.10;58.30;;;;;;5093553;28;20035;-62
2021/03/30 05:56:52;;;;;;;12.65;7.60;;;19.10;58.40;;;;;;5093588;28;20628;-62
2021/03/30 05:59:20;;;;;;;11.35;8.07;;;19.10;58.40;;;;;;5093514;28;20028;-61
2021/03/30 06:01:49;;;;;;;14.32;7.95;;;19.00;58.50;;;;;;5093451;28;20028;-61
2021/03/30 06:04:16;;;;;;;11.80;6.93;;;19.10;58.40;;;;;;5093406;28;20055;-61
2021/03/30 06:06:42;;;;;;;16.27;8.43;;;19.00;58.40;;;;;;5093347;28;20028;-61
2021/03/30 06:09:07;;;;;;;14.38;7.32;;;19.00;59.30;;;;;;5093124;28;20054;-62
2021/03/30 06:11:33;;;;;;;18.80;8.10;;;19.10;58.70;;;;;;5093068;28;20396;-61
2021/03/30 06:13:59;;;;;;;14.40;8.95;;;19.30;58.70;;;;;;5093365;28;20375;-61
2021/03/30 06:16:37;;;;;;;12.20;8.48;;;19.40;59.50;;;;;;5094331;28;20372;-62
2021/03/30 06:19:15;;;;;;;19.63;9.45;;;19.40;58.40;;;;;;5093991;28;20030;-62
2021/03/30 06:21:44;;;;;;;13.20;8.32;;;19.30;58.20;;;;;;5092927;28;20059;-61
2021/03/30 06:24:21;;;;;;;23.83;8.90;;;19.30;58.70;;;;;;5093648;28;20103;-62
2021/03/30 06:26:52;;;;;;;13.65;8.25;;;19.30;58.90;;;;;;5093512;28;20492;-69
2021/03/30 06:29:35;;;;;;;16.67;8.57;;;19.30;58.40;;;;;;5093031;28;20117;-66
2021/03/30 06:32:08;;;;;;;137.55;89.30;;;19.20;58.40;;;;;;5090870;28;20471;-65
2021/03/30 06:34:34;;;;;;;89.82;56.22;;;19.20;58.00;;;;;;5090423;28;20053;-66
2021/03/30 06:37:00;;;;;;;66.57;43.30;;;19.20;57.30;;;;;;5092532;28;20027;-66
2021/03/30 06:39:35;;;;;;;66.65;41.63;;;19.20;56.30;;;;;;5090769;28;20032;-65
2021/03/30 06:42:25;;;;;;;63.13;36.35;;;19.20;55.20;;;;;;5086976;28;20020;-66
2021/03/30 06:44:50;;;;;;;46.72;30.58;;;19.10;54.80;;;;;;5092444;28;20472;-68
2021/03/30 06:47:19;;;;;;;51.78;30.10;;;19.00;54.80;;;;;;5093792;28;20460;-71
2021/03/30 06:50:00;;;;;;;43.00;30.10;;;19.00;56.10;;;;;;5093582;28;20415;-63
2021/03/30 06:52:33;;;;;;;32.85;20.90;;;18.90;55.10;;;;;;5093745;28;20028;-70
2021/03/30 06:55:01;;;;;;;31.95;17.05;;;18.90;56.90;;;;;;5093678;28;20103;-64
2021/03/30 06:57:46;;;;;;;23.95;14.95;;;18.90;57.20;;;;;;5093641;28;20027;-64
2021/03/30 07:00:25;;;;;;;23.13;13.77;;;18.90;57.40;;;;;;5093498;28;20028;-64
2021/03/30 07:02:54;;;;;;;14.27;10.70;;;18.90;57.00;;;;;;5093612;28;20103;-63
2021/03/30 07:05:25;;;;;;;20.20;11.60;;;18.90;55.30;;;;;;5093579;28;20027;-62
2021/03/30 07:07:54;;;;;;;24.65;12.48;;;18.80;55.60;;;;;;5093309;28;20400;-62
2021/03/30 07:10:20;;;;;;;18.55;10.82;;;18.80;55.60;;;;;;5092555;28;20035;-62
2021/03/30 07:12:49;;;;;;;16.98;10.35;;;18.90;55.60;;;;;;5092011;28;20024;-62
2021/03/30 07:15:21;;;;;;;20.17;10.82;;;18.90;55.70;;;;;;5092030;28;20036;-62
2021/03/30 07:18:06;;;;;;;17.15;10.60;;;18.90;55.90;;;;;;5092502;28;20202;-62
2021/03/30 07:20:44;;;;;;;15.77;10.23;;;18.80;56.00;;;;;;5092867;28;20560;-62
2021/03/30 07:23:25;;;;;;;19.77;11.57;;;18.90;56.10;;;;;;5092925;28;20106;-62
2021/03/30 07:26:12;;;;;;;15.52;10.23;;;18.90;56.20;;;;;;5092897;28;20031;-62
2021/03/30 07:28:53;;;;;;;20.25;10.30;;;18.90;56.30;;;;;;5096988;28;20216;-61
2021/03/30 07:31:46;;;;;;;16.98;10.25;;;18.90;56.40;;;;;;5095305;28;20138;-63
2021/03/30 07:34:30;;;;;;;20.98;9.80;;;18.90;56.50;;;;;;5095990;28;20032;-62
2021/03/30 07:37:02;;;;;;;16.80;12.02;;;18.90;56.40;;;;;;5096590;28;20447;-62
2021/03/30 07:39:34;;;;;;;16.58;9.20;;;18.90;56.30;;;;;;5096762;28;20024;-62
2021/03/30 07:41:59;;;;;;;20.48;11.27;;;18.90;56.30;;;;;;5096452;28;20380;-62
2021/03/30 07:44:26;;;;;;;14.35;9.75;;;18.90;56.40;;;;;;5096444;28;20016;-62
2021/03/30 07:46:54;;;;;;;17.60;10.02;;;18.90;56.50;;;;;;5096328;28;20035;-62
2021/03/30 07:49:23;;;;;;;19.20;9.80;;;18.90;56.80;;;;;;5097183;28;20040;-62
2021/03/30 07:51:48;;;;;;;16.58;9.32;;;19.00;56.90;;;;;;5095587;28;20482;-62
2021/03/30 07:54:16;;;;;;;16.35;8.93;;;19.00;56.60;;;;;;5097118;28;20040;-61
2021/03/30 07:56:41;;;;;;;15.00;8.80;;;19.00;56.60;;;;;;5096621;28;20476;-62
2021/03/30 07:59:08;;;;;;;14.27;9.38;;;19.10;56.40;;;;;;5096675;28;20074;-62
2021/03/30 08:01:36;;;;;;;14.75;9.48;;;19.10;56.10;;;;;;5097005;28;20081;-62
2021/03/30 08:04:03;;;;;;;16.52;7.90;;;19.10;56.10;;;;;;5096993;28;20050;-62
2021/03/30 08:06:36;;;;;;;14.35;9.25;;;19.10;55.80;;;;;;5096336;28;20036;-62
2021/03/30 08:09:07;;;;;;;13.88;8.15;;;19.10;55.90;;;;;;5096699;28;20043;-62
2021/03/30 08:11:58;;;;;;;12.52;7.65;;;19.10;55.80;;;;;;5096268;28;20024;-62
2021/03/30 08:14:28;;;;;;;10.82;7.68;;;19.10;55.90;;;;;;5096445;28;20020;-62
2021/03/30 08:16:56;;;;;;;17.33;8.35;;;19.20;55.80;;;;;;5096411;28;20123;-62
2021/03/30 08:19:25;;;;;;;13.55;8.27;;;19.20;55.80;;;;;;5096057;28;20189;-62
2021/03/30 08:21:59;;;;;;;13.93;8.35;;;19.20;55.70;;;;;;5096296;28;20016;-62
2021/03/30 08:24:44;;;;;;;11.93;7.97;;;19.20;55.80;;;;;;5096489;28;20036;-62
2021/03/30 08:27:35;;;;;;;13.07;7.55;;;19.20;55.80;;;;;;5096111;28;20044;-62
2021/03/30 08:30:25;;;;;;;11.52;6.95;;;19.20;56.00;;;;;;5095898;28;20113;-62
2021/03/30 08:32:54;;;;;;;11.20;7.93;;;19.20;56.10;;;;;;5096260;28;20158;-62
2021/03/30 08:35:32;;;;;;;11.63;7.78;;;19.10;56.10;;;;;;5096026;28;20460;-62
2021/03/30 08:37:59;;;;;;;12.60;7.70;;;19.10;56.00;;;;;;5095722;28;20384;-62
2021/03/30 08:40:34;;;;;;;11.73;7.50;;;19.20;56.10;;;;;;5095654;28;20024;-62
2021/03/30 08:43:12;;;;;;;10.40;7.22;;;19.20;56.00;;;;;;5095535;28;20016;-62
2021/03/30 08:45:58;;;;;;;12.15;7.10;;;19.20;56.10;;;;;;5095664;28;20035;-62
2021/03/30 08:48:40;;;;;;;11.38;7.15;;;19.20;56.10;;;;;;5095611;28;20028;-62
2021/03/30 08:51:08;;;;;;;12.18;7.45;;;19.30;56.10;;;;;;5095229;28;20043;-62
2021/03/30 08:53:34;;;;;;;11.02;7.30;;;19.30;56.10;;;;;;5095526;28;20158;-62
2021/03/30 08:56:03;;;;;;;12.77;7.47;;;19.20;56.10;;;;;;5095348;28;20027;-62
2021/03/30 08:58:31;;;;;;;8.45;6.22;;;19.20;56.00;;;;;;5095512;28;20047;-62
2021/03/30 09:00:57;;;;;;;9.95;6.82;;;19.20;56.10;;;;;;5095179;28;20110;-62
2021/03/30 09:03:29;;;;;;;10.30;7.65;;;19.20;55.90;;;;;;5095486;28;20063;-61
2021/03/30 09:05:55;;;;;;;10.30;7.28;;;19.20;55.90;;;;;;5095334;28;20027;-62
2021/03/30 09:08:41;;;;;;;9.50;8.02;;;19.20;55.80;;;;;;5095236;28;20032;-62
2021/03/30 09:11:22;;;;;;;12.90;7.15;;;19.20;55.90;;;;;;5095430;28;20146;-62
2021/03/30 09:14:18;;;;;;;11.40;7.18;;;19.10;55.90;;;;;;5095257;28;20107;-62
2021/03/30 09:16:45;;;;;;;10.20;7.38;;;19.10;56.40;;;;;;5094320;28;20036;-62
2021/03/30 09:19:24;;;;;;;12.75;7.25;;;19.10;56.70;;;;;;5095151;28;20039;-62
2021/03/30 09:21:57;;;;;;;10.30;6.88;;;19.00;56.80;;;;;;5095531;28;20466;-62
2021/03/30 09:27:08;;;;;;;9.00;6.88;;;19.00;56.60;;;;;;5095112;28;20089;-62
2021/03/30 09:29:38;;;;;;;9.93;6.05;;;19.10;56.30;;;;;;5094927;28;20121;-61
2021/03/30 09:32:08;;;;;;;10.45;6.63;;;19.10;56.30;;;;;;5094752;28;20467;-61
2021/03/30 09:34:40;;;;;;;10.40;6.53;;;19.20;56.20;;;;;;5094933;28;20097;-61
2021/03/30 09:37:06;;;;;;;13.57;6.75;;;19.20;56.30;;;;;;5094780;28;20052;-62
2021/03/30 09:39:35;;;;;;;9.90;6.55;;;19.20;56.20;;;;;;5095391;28;20192;-62
2021/03/30 09:42:00;;;;;;;9.23;6.25;;;19.20;56.40;;;;;;5094926;28;20028;-62
2021/03/30 09:44:31;;;;;;;9.93;6.68;;;19.20;56.30;;;;;;5094682;28;20482;-62
2021/03/30 09:46:57;;;;;;;9.43;5.97;;;19.20;56.40;;;;;;5094836;28;20028;-62
2021/03/30 09:49:25;;;;;;;8.90;5.78;;;19.10;56.50;;;;;;5093647;28;20036;-62
2021/03/30 09:51:52;;;;;;;9.35;6.65;;;19.10;56.50;;;;;;5094538;28;20032;-62
2021/03/30 09:54:25;;;;;;;9.00;6.13;;;19.10;56.40;;;;;;5094887;28;20062;-62
2021/03/30 09:57:11;;;;;;;9.05;6.72;;;19.10;56.50;;;;;;5094513;28;20070;-62
2021/03/30 09:59:37;;;;;;;8.23;6.07;;;19.10;56.30;;;;;;5094559;28;20353;-62
2021/03/30 10:02:04;;;;;;;8.98;6.43;;;19.10;56.50;;;;;;5094043;28;20070;-62
2021/03/30 10:04:33;;;;;;;9.77;5.85;;;19.10;56.40;;;;;;5094738;28;20035;-62
2021/03/30 10:07:11;;;;;;;9.65;6.25;;;19.10;56.30;;;;;;5094015;28;20392;-62
2021/03/30 10:10:04;;;;;;;11.10;7.30;;;19.10;56.40;;;;;;5094184;28;20116;-62
2021/03/30 10:12:32;;;;;;;9.50;6.30;;;19.10;56.40;;;;;;5093883;28;20384;-62
2021/03/30 10:14:59;;;;;;;10.15;6.00;;;19.00;56.40;;;;;;5094155;28;20035;-61
2021/03/30 10:17:26;;;;;;;9.52;6.70;;;19.00;56.60;;;;;;5093848;28;20039;-62
2021/03/30 10:19:53;;;;;;;9.98;6.45;;;19.00;56.50;;;;;;5094264;28;20372;-62
2021/03/30 10:22:24;;;;;;;8.63;6.28;;;19.10;56.20;;;;;;5094070;28;20027;-62
2021/03/30 10:25:13;;;;;;;8.55;5.85;;;19.20;56.10;;;;;;5094002;28;20024;-62
2021/03/30 10:27:47;;;;;;;8.82;6.53;;;19.20;56.20;;;;;;5094146;28;20078;-62
2021/03/30 10:30:13;;;;;;;9.27;6.38;;;19.20;56.10;;;;;;5094258;28;20032;-62
2021/03/30 10:32:49;;;;;;;11.10;6.07;;;19.30;56.10;;;;;;5093767;28;20036;-61
2021/03/30 10:35:16;;;;;;;9.48;6.25;;;19.30;56.30;;;;;;5093877;28;20024;-62
2021/03/30 10:37:42;;;;;;;9.57;6.10;;;19.20;56.40;;;;;;5093848;28;20020;-62
2021/03/30 10:40:10;;;;;;;9.57;6.60;;;19.10;56.50;;;;;;5093659;28;20456;-62
2021/03/30 10:42:39;;;;;;;9.98;6.78;;;19.10;56.60;;;;;;5094027;28;20036;-62
2021/03/30 10:45:08;;;;;;;9.20;6.85;;;19.10;56.80;;;;;;5094061;28;20028;-62
2021/03/30 10:47:36;;;;;;;10.90;6.80;;;19.00;56.70;;;;;;5093678;28;20017;-62
2021/03/30 10:50:11;;;;;;;8.55;6.55;;;19.00;56.80;;;;;;5094432;28;20031;-62
2021/03/30 10:52:38;;;;;;;11.00;6.65;;;19.10;56.90;;;;;;5093522;28;20040;-62
2021/03/30 10:55:10;;;;;;;8.88;5.70;;;19.10;56.50;;;;;;5093516;28;20039;-62
2021/03/30 10:57:40;;;;;;;8.50;6.07;;;19.10;56.90;;;;;;5093727;28;20032;-62
2021/03/30 11:00:08;;;;;;;12.30;6.00;;;19.10;56.90;;;;;;5093893;28;20107;-63
2021/03/30 11:02:34;;;;;;;8.45;6.13;;;19.00;56.80;;;;;;5097766;28;20042;-62
2021/03/30 11:05:00;;;;;;;8.63;5.88;;;19.00;56.80;;;;;;5097608;28;20042;-62
2021/03/30 11:07:26;;;;;;;8.73;5.80;;;19.00;56.80;;;;;;5097533;28;20460;-62
2021/03/30 11:09:52;;;;;;;9.15;6.07;;;19.00;56.80;;;;;;5097361;28;20123;-62
2021/03/30 11:12:18;;;;;;;8.75;6.68;;;19.00;56.90;;;;;;5097759;28;20479;-61
2021/03/30 11:14:43;;;;;;;8.27;6.35;;;19.00;56.90;;;;;;5097487;28;20111;-62
2021/03/30 11:17:09;;;;;;;8.63;5.90;;;19.00;56.80;;;;;;5097574;28;20032;-62
2021/03/30 11:19:35;;;;;;;9.70;5.93;;;19.10;56.60;;;;;;5097299;28;20464;-62
2021/03/30 11:22:02;;;;;;;9.98;5.80;;;19.10;56.70;;;;;;5097797;28;20472;-61
2021/03/30 11:24:30;;;;;;;10.43;6.07;;;19.10;56.60;;;;;;5097446;28;20059;-62
2021/03/30 11:26:57;;;;;;;8.07;6.35;;;19.10;56.60;;;;;;5097404;28;20047;-62
2021/03/30 11:29:43;;;;;;;10.70;6.00;;;19.10;56.70;;;;;;5097098;28;20038;-62
2021/03/30 11:34:57;;;;;;;7.95;6.00;;;19.00;57.20;;;;;;5097483;28;20085;-61
2021/03/30 11:39:51;;;;;;;8.18;5.47;;;19.00;57.10;;;;;;5097617;28;20127;-62
2021/03/30 11:42:17;;;;;;;9.25;6.88;;;18.90;57.30;;;;;;5097191;28;20052;-62
2021/03/30 11:44:43;;;;;;;9.10;6.03;;;18.90;57.20;;;;;;5096977;28;20074;-62
2021/03/30 11:47:09;;;;;;;9.40;6.43;;;18.90;57.30;;;;;;5097100;28;20032;-62
2021/03/30 11:49:35;;;;;;;11.93;6.78;;;18.80;57.40;;;;;;5096739;28;20040;-62
2021/03/30 11:52:01;;;;;;;10.70;6.75;;;18.80;57.50;;;;;;5096821;28;20039;-63
2021/03/30 11:54:28;;;;;;;8.43;6.07;;;18.80;57.50;;;;;;5096676;28;20024;-62
2021/03/30 11:56:54;;;;;;;8.43;5.65;;;18.80;57.50;;;;;;5096743;28;20025;-62
2021/03/30 11:59:20;;;;;;;8.70;6.25;;;18.80;57.50;;;;;;5096974;28;20035;-62
2021/03/30 12:01:46;;;;;;;11.35;6.47;;;18.80;57.60;;;;;;5096669;28;20158;-61
2021/03/30 12:04:11;;;;;;;7.68;6.00;;;18.80;57.60;;;;;;5096778;28;20082;-62
2021/03/30 12:06:37;;;;;;;8.73;6.55;;;18.80;57.50;;;;;;5096468;28;20028;-62
2021/03/30 12:09:04;;;;;;;10.00;7.00;;;18.80;57.50;;;;;;5096412;28;20379;-62
2021/03/30 12:11:30;;;;;;;10.55;6.07;;;18.80;57.10;;;;;;5096159;28;20032;-62
2021/03/30 12:13:56;;;;;;;9.20;5.60;;;18.90;56.90;;;;;;5095696;28;20448;-62
2021/03/30 12:16:23;;;;;;;9.23;5.55;;;19.00;56.90;;;;;;5096162;28;20032;-62
2021/03/30 12:18:48;;;;;;;9.98;6.63;;;19.00;57.00;;;;;;5096255;28;20399;-62
2021/03/30 12:21:14;;;;;;;9.95;6.70;;;19.00;57.00;;;;;;5096256;28;20028;-62
2021/03/30 12:23:40;;;;;;;11.32;6.82;;;19.00;57.00;;;;;;5096932;28;20460;-61
2021/03/30 12:26:05;;;;;;;9.75;6.28;;;18.90;57.20;;;;;;5096004;28;20371;-62
2021/03/30 12:28:31;;;;;;;12.38;6.82;;;18.90;57.30;;;;;;5096244;28;20051;-62
2021/03/30 12:30:57;;;;;;;8.70;5.85;;;18.80;57.50;;;;;;5096132;28;20035;-62
2021/03/30 12:33:23;;;;;;;8.18;5.85;;;18.80;57.40;;;;;;5095947;28;20048;-62
2021/03/30 12:35:48;;;;;;;10.63;6.85;;;18.70;57.40;;;;;;5095935;28;20032;-62
2021/03/30 12:38:14;;;;;;;9.40;6.90;;;18.70;57.60;;;;;;5096425;28;20028;-62
2021/03/30 12:40:40;;;;;;;9.85;6.95;;;18.70;57.60;;;;;;5095957;28;20418;-62
2021/03/30 12:43:06;;;;;;;9.13;6.63;;;18.60;57.60;;;;;;5096100;28;20165;-62
2021/03/30 12:45:35;;;;;;;12.85;6.35;;;18.60;57.60;;;;;;5096013;28;20107;-62
2021/03/30 12:48:02;;;;;;;9.82;6.10;;;18.60;57.60;;;;;;5095676;28;20384;-62
2021/03/30 12:50:29;;;;;;;9.88;7.03;;;18.70;57.60;;;;;;5095407;28;20055;-62
2021/03/30 12:52:55;;;;;;;10.13;6.95;;;18.60;57.80;;;;;;5096036;28;20035;-62
2021/03/30 12:55:21;;;;;;;13.32;6.97;;;18.60;57.60;;;;;;5095478;28;20032;-62
2021/03/30 12:57:47;;;;;;;9.07;6.22;;;18.60;57.60;;;;;;5095487;28;20039;-62
2021/03/30 13:00:13;;;;;;;11.75;7.35;;;18.60;57.60;;;;;;5095406;28;20020;-62